Terminal Aerodrome Forecast
Issued by NWS

Home | Current Version | Previous Version | Text Only | Print | Product List | Glossary On
Versions: 1 2 3 4 5 6 7 8 9 10 11 12 13
469
FTAK31 PAJN 251127
TAFAGY
TAF
PAGY 251127Z 2512/2612 20018G28KT P6SM BKN050 OVC080
     FM260200 21012KT P6SM SCT030 BKN045
     FM260800 21008KT P6SM -RA FEW012 OVC025
      AMD LTD TO CLD VIS AND WIND=

USA.gov is the U.S. government's official web portal to all federal, state and local government web resources and services.